createdAt,value
2023-05-11T00:00:24.064Z,68.08
2023-05-11T00:01:24.061Z,68.30
2023-05-11T00:02:24.233Z,68.47
2023-05-11T00:03:24.699Z,68.35
2023-05-11T00:04:24.111Z,68.23
2023-05-11T00:05:24.080Z,68.08
2023-05-11T00:06:24.077Z,68.10
2023-05-11T00:07:24.142Z,67.93
2023-05-11T00:08:24.208Z,68.10
2023-05-11T00:09:24.272Z,68.06
2023-05-11T00:10:24.339Z,67.85
2023-05-11T00:11:24.435Z,67.58
2023-05-11T00:12:24.467Z,67.62
2023-05-11T00:13:24.540Z,67.61
2023-05-11T00:14:24.608Z,67.54
2023-05-11T00:15:24.702Z,67.59
2023-05-11T00:16:24.781Z,67.56
2023-05-11T00:17:24.826Z,67.49
2023-05-11T00:18:24.874Z,67.40
2023-05-11T00:19:24.940Z,67.12
2023-05-11T00:20:25.008Z,67.08
2023-05-11T00:21:25.095Z,67.02
2023-05-11T00:22:25.128Z,66.97
2023-05-11T00:23:25.283Z,67.05
2023-05-11T00:24:25.359Z,66.93
2023-05-11T00:25:25.374Z,66.78
2023-05-11T00:26:25.411Z,66.75
2023-05-11T00:27:25.526Z,66.59
2023-05-11T00:28:25.564Z,66.31
2023-05-11T00:29:25.597Z,66.44
2023-05-11T00:30:25.678Z,66.69
2023-05-11T00:31:26.525Z,66.49
2023-05-11T00:32:25.771Z,66.81
2023-05-11T00:33:25.776Z,66.62
2023-05-11T00:34:25.731Z,66.52
2023-05-11T00:35:25.736Z,66.44
2023-05-11T00:36:25.730Z,66.33
2023-05-11T00:37:26.194Z,66.23
2023-05-11T00:38:25.770Z,66.09
2023-05-11T00:39:25.796Z,65.95
2023-05-11T00:40:25.749Z,66.02
2023-05-11T00:41:25.767Z,66.02
2023-05-11T00:42:25.732Z,65.95
2023-05-11T00:43:25.753Z,66.30
2023-05-11T00:44:25.728Z,66.90
2023-05-11T00:45:25.725Z,66.82
2023-05-11T00:46:25.754Z,66.44
2023-05-11T00:47:25.754Z,66.41
2023-05-11T00:48:25.725Z,66.28
2023-05-11T00:49:25.727Z,66.43
2023-05-11T00:50:25.723Z,66.58
2023-05-11T00:51:25.719Z,66.63
2023-05-11T00:52:25.745Z,66.66
2023-05-11T00:53:25.735Z,66.80
2023-05-11T00:54:25.736Z,66.75
2023-05-11T00:55:25.733Z,66.28
2023-05-11T00:56:25.814Z,65.81
2023-05-11T00:57:25.852Z,65.38
2023-05-11T00:58:25.858Z,64.90
2023-05-11T00:59:25.914Z,65.49
2023-05-11T01:00:25.881Z,65.43
2023-05-11T01:01:25.949Z,65.47
2023-05-11T01:02:26.047Z,65.02
2023-05-11T01:03:25.943Z,64.59
2023-05-11T01:04:25.945Z,64.55
2023-05-11T01:05:25.960Z,64.92
2023-05-11T01:06:25.974Z,64.04
2023-05-11T01:07:25.989Z,63.89
2023-05-11T01:08:25.991Z,63.85
2023-05-11T01:09:26.010Z,63.84
2023-05-11T01:10:26.053Z,63.76
2023-05-11T01:11:26.136Z,63.66
2023-05-11T01:12:26.060Z,63.99
2023-05-11T01:13:26.110Z,63.83
2023-05-11T01:14:26.109Z,64.66
2023-05-11T01:15:26.175Z,64.92
2023-05-11T01:16:26.152Z,65.10
2023-05-11T01:17:26.186Z,64.35
2023-05-11T01:18:26.235Z,65.21
2023-05-11T01:19:26.261Z,65.10
2023-05-11T01:20:26.286Z,64.81
2023-05-11T01:21:26.352Z,64.43
2023-05-11T01:22:26.384Z,64.13
2023-05-11T01:23:26.464Z,64.54
2023-05-11T01:24:26.518Z,64.53
2023-05-11T01:25:26.560Z,63.97
2023-05-11T01:26:26.638Z,64.41
2023-05-11T01:27:26.614Z,64.21
2023-05-11T01:28:26.674Z,64.03
2023-05-11T01:29:26.653Z,64.21
2023-05-11T01:30:26.684Z,64.37
2023-05-11T01:31:26.808Z,64.81
2023-05-11T01:32:26.841Z,65.01
2023-05-11T01:33:26.890Z,65.02
2023-05-11T01:34:26.910Z,64.99
2023-05-11T01:35:26.967Z,65.76
2023-05-11T01:36:26.994Z,66.02
2023-05-11T01:37:27.035Z,65.97
2023-05-11T01:38:27.102Z,65.64
2023-05-11T01:39:27.149Z,65.23
2023-05-11T01:40:27.125Z,66.69
2023-05-11T01:41:27.145Z,68.20
2023-05-11T01:42:27.160Z,67.03
2023-05-11T01:43:27.177Z,66.64
2023-05-11T01:44:27.187Z,67.18
2023-05-11T01:45:27.193Z,67.65
2023-05-11T01:46:27.282Z,68.27
2023-05-11T01:47:27.289Z,67.84
2023-05-11T01:48:27.220Z,67.32
2023-05-11T01:49:27.246Z,67.37
2023-05-11T01:50:27.231Z,67.53
2023-05-11T01:51:27.229Z,67.30
2023-05-11T01:52:27.255Z,66.81
2023-05-11T01:53:27.259Z,66.49
2023-05-11T01:54:27.749Z,66.43
2023-05-11T01:55:27.310Z,67.33
2023-05-11T01:56:27.360Z,68.14
2023-05-11T01:57:27.360Z,67.78
2023-05-11T01:58:27.367Z,67.33
2023-05-11T01:59:27.506Z,67.68
2023-05-11T02:00:27.433Z,67.39
2023-05-11T02:01:27.546Z,67.09
2023-05-11T02:02:27.538Z,66.96
2023-05-11T02:03:27.612Z,67.01
2023-05-11T02:04:27.490Z,66.77
2023-05-11T02:05:28.363Z,66.96
2023-05-11T02:06:27.500Z,67.05
2023-05-11T02:07:27.501Z,66.86
2023-05-11T02:08:27.509Z,66.63
2023-05-11T02:09:27.525Z,66.53
2023-05-11T02:10:27.543Z,66.37
2023-05-11T02:11:27.550Z,66.45
2023-05-11T02:12:27.576Z,66.69
2023-05-11T02:13:27.601Z,66.70
2023-05-11T02:14:27.601Z,66.74
2023-05-11T02:15:27.614Z,66.43
2023-05-11T02:16:27.652Z,66.49
2023-05-11T02:17:27.663Z,66.52
2023-05-11T02:18:27.680Z,66.46
2023-05-11T02:19:27.712Z,66.42
2023-05-11T02:20:27.706Z,66.29
2023-05-11T02:21:27.742Z,66.36
2023-05-11T02:22:27.763Z,66.44
2023-05-11T02:23:27.890Z,66.35
2023-05-11T02:24:27.795Z,66.54
2023-05-11T02:25:27.809Z,66.64
2023-05-11T02:26:27.831Z,66.60
2023-05-11T02:27:27.844Z,66.42
2023-05-11T02:28:27.864Z,66.42
2023-05-11T02:29:27.903Z,66.30
2023-05-11T02:30:27.895Z,66.42
2023-05-11T02:31:27.982Z,66.26
2023-05-11T02:32:29.068Z,66.24
2023-05-11T02:33:27.938Z,66.15
2023-05-11T02:34:28.028Z,66.15
2023-05-11T02:35:27.977Z,66.18
2023-05-11T02:36:27.969Z,66.23
2023-05-11T02:37:28.030Z,66.56
2023-05-11T02:38:28.001Z,66.73
2023-05-11T02:39:28.023Z,66.79
2023-05-11T02:40:28.044Z,66.84
2023-05-11T02:41:28.086Z,66.92
2023-05-11T02:42:28.163Z,66.83
2023-05-11T02:43:28.128Z,66.76
2023-05-11T02:44:28.180Z,66.43
2023-05-11T02:45:28.182Z,66.67
2023-05-11T02:46:28.294Z,66.75
2023-05-11T02:47:28.388Z,66.76
2023-05-11T02:48:28.337Z,67.05
2023-05-11T02:49:28.421Z,66.90
2023-05-11T02:50:28.432Z,67.10
2023-05-11T02:51:28.505Z,67.15
2023-05-11T02:52:28.518Z,67.12
2023-05-11T02:53:28.578Z,66.99
2023-05-11T02:54:28.641Z,67.20
2023-05-11T02:55:28.676Z,67.12
2023-05-11T02:56:28.722Z,67.18
2023-05-11T02:57:28.772Z,67.42
2023-05-11T02:58:28.866Z,67.61
2023-05-11T02:59:28.943Z,69.67
2023-05-11T03:00:28.995Z,69.02
2023-05-11T03:01:30.561Z,68.10
2023-05-11T03:02:29.832Z,69.92
2023-05-11T03:03:29.134Z,69.40
2023-05-11T03:04:28.997Z,68.48
2023-05-11T03:05:28.980Z,68.22
2023-05-11T03:06:29.045Z,68.01
2023-05-11T03:07:29.032Z,67.99
2023-05-11T03:08:29.011Z,68.22
2023-05-11T03:09:29.040Z,67.93
2023-05-11T03:10:29.031Z,67.75
2023-05-11T03:11:29.031Z,67.97
2023-05-11T03:12:29.046Z,68.82
2023-05-11T03:13:29.061Z,68.15
2023-05-11T03:14:29.063Z,68.07
2023-05-11T03:15:29.079Z,67.51
2023-05-11T03:16:30.099Z,67.34
2023-05-11T03:17:29.154Z,67.05
2023-05-11T03:18:29.153Z,67.08
2023-05-11T03:19:29.238Z,67.23
2023-05-11T03:20:29.260Z,67.25
2023-05-11T03:21:29.317Z,67.10
2023-05-11T03:22:29.380Z,67.27
2023-05-11T03:23:29.468Z,67.09
2023-05-11T03:24:29.577Z,66.53
2023-05-11T03:25:29.571Z,66.70
2023-05-11T03:26:29.626Z,66.91
2023-05-11T03:27:29.720Z,67.18
2023-05-11T03:28:29.817Z,67.05
2023-05-11T03:29:29.892Z,67.74
2023-05-11T03:30:29.985Z,67.67
2023-05-11T03:31:30.093Z,67.21
2023-05-11T03:32:30.159Z,67.21
2023-05-11T03:33:30.213Z,67.04
2023-05-11T03:34:30.256Z,67.02
2023-05-11T03:35:30.324Z,67.31
2023-05-11T03:36:30.368Z,67.92
2023-05-11T03:37:30.458Z,67.68
2023-05-11T03:38:30.566Z,67.66
2023-05-11T03:39:30.641Z,67.23
2023-05-11T03:40:30.687Z,67.09
2023-05-11T03:41:30.756Z,67.01
2023-05-11T03:42:30.877Z,66.63
2023-05-11T03:43:30.932Z,67.09
2023-05-11T03:44:31.043Z,66.97
2023-05-11T03:45:31.098Z,66.93
2023-05-11T03:46:31.282Z,66.69
2023-05-11T03:47:31.380Z,66.78
2023-05-11T03:48:31.357Z,66.89
2023-05-11T03:49:31.458Z,66.76
2023-05-11T03:50:31.500Z,66.92
2023-05-11T03:51:31.578Z,67.04
2023-05-11T03:52:31.612Z,67.29
2023-05-11T03:53:31.715Z,68.53
2023-05-11T03:54:31.801Z,67.88
2023-05-11T03:55:31.890Z,67.37
2023-05-11T03:56:31.951Z,67.73
2023-05-11T03:57:32.017Z,68.32
2023-05-11T03:58:32.091Z,68.57
2023-05-11T03:59:32.186Z,67.99
2023-05-11T04:00:32.250Z,67.61
2023-05-11T04:01:32.332Z,67.38
2023-05-11T04:02:32.528Z,67.25
2023-05-11T04:03:32.632Z,67.31
2023-05-11T04:04:32.635Z,67.20
2023-05-11T04:05:32.656Z,67.02
2023-05-11T04:06:32.690Z,66.96
2023-05-11T04:07:32.716Z,67.18
2023-05-11T04:08:32.755Z,67.18
2023-05-11T04:09:32.789Z,66.74
2023-05-11T04:10:32.819Z,67.29
2023-05-11T04:11:32.900Z,67.11
2023-05-11T04:12:32.882Z,66.89
2023-05-11T04:13:32.912Z,67.15
2023-05-11T04:14:32.996Z,67.35
2023-05-11T04:15:32.992Z,67.10
2023-05-11T04:16:33.194Z,67.46
2023-05-11T04:17:33.111Z,68.46
2023-05-11T04:18:33.181Z,68.27
2023-05-11T04:19:33.243Z,67.61
2023-05-11T04:20:33.296Z,67.36
2023-05-11T04:21:33.332Z,67.16
2023-05-11T04:22:33.425Z,67.31
2023-05-11T04:23:33.470Z,68.78
2023-05-11T04:24:33.603Z,67.80
2023-05-11T04:25:33.639Z,67.74
2023-05-11T04:26:33.717Z,67.35
2023-05-11T04:27:33.836Z,67.43
2023-05-11T04:28:33.901Z,67.16
2023-05-11T04:29:34.001Z,68.65
2023-05-11T04:30:34.038Z,67.42
2023-05-11T04:31:34.180Z,67.17
2023-05-11T04:32:34.250Z,67.11
2023-05-11T04:33:34.274Z,66.78
2023-05-11T04:34:34.348Z,67.65
2023-05-11T04:35:34.378Z,67.12
2023-05-11T04:36:34.448Z,67.38
2023-05-11T04:37:34.519Z,67.27
2023-05-11T04:38:34.594Z,67.55
2023-05-11T04:39:34.682Z,67.16
2023-05-11T04:40:35.137Z,67.79
2023-05-11T04:41:34.847Z,67.50
2023-05-11T04:42:34.935Z,67.22
2023-05-11T04:43:35.040Z,67.18
2023-05-11T04:44:35.097Z,68.46
2023-05-11T04:45:35.170Z,68.28
2023-05-11T04:46:35.348Z,67.69
2023-05-11T04:47:35.346Z,67.62
2023-05-11T04:48:35.434Z,69.06
2023-05-11T04:49:35.514Z,68.38
2023-05-11T04:50:35.582Z,68.37
2023-05-11T04:51:35.659Z,67.92
2023-05-11T04:52:35.746Z,67.50
2023-05-11T04:53:35.788Z,67.33
2023-05-11T04:54:35.869Z,67.21
2023-05-11T04:55:35.960Z,67.46
2023-05-11T04:56:36.035Z,66.79
2023-05-11T04:57:36.083Z,66.51
2023-05-11T04:58:36.106Z,66.81
2023-05-11T04:59:36.217Z,66.38
2023-05-11T05:00:36.201Z,66.46
2023-05-11T05:01:36.263Z,66.30
2023-05-11T05:02:36.324Z,66.56
2023-05-11T05:03:36.357Z,66.87
2023-05-11T05:04:36.602Z,66.84
2023-05-11T05:05:36.389Z,66.54
2023-05-11T05:06:36.411Z,65.98
2023-05-11T05:07:36.471Z,65.97
2023-05-11T05:09:35.542Z,65.76
2023-05-11T05:10:36.585Z,65.93
2023-05-11T05:11:36.602Z,65.70
2023-05-11T05:12:36.644Z,66.02
2023-05-11T05:13:36.640Z,66.35
2023-05-11T05:14:36.666Z,66.69
2023-05-11T05:15:36.792Z,66.73
2023-05-11T05:16:36.708Z,66.43
2023-05-11T05:17:36.760Z,66.57
2023-05-11T05:18:36.809Z,67.86
2023-05-11T05:19:36.751Z,66.62
2023-05-11T05:20:36.809Z,65.99
2023-05-11T05:21:36.793Z,65.87
2023-05-11T05:22:36.864Z,65.99
2023-05-11T05:23:36.819Z,65.85
2023-05-11T05:24:36.867Z,65.93
2023-05-11T05:25:37.304Z,64.98
2023-05-11T05:26:36.878Z,64.76
2023-05-11T05:27:37.334Z,64.85
2023-05-11T05:28:36.916Z,64.95
2023-05-11T05:29:36.939Z,65.30
2023-05-11T05:30:37.009Z,65.22
2023-05-11T05:31:37.000Z,65.18
2023-05-11T05:32:37.054Z,64.98
2023-05-11T05:33:37.029Z,64.87
2023-05-11T05:34:37.094Z,64.82
2023-05-11T05:35:37.309Z,64.86
2023-05-11T05:36:38.078Z,64.69
2023-05-11T05:37:37.079Z,65.07
2023-05-11T05:38:37.323Z,64.67
2023-05-11T05:39:37.172Z,64.85
2023-05-11T05:40:38.231Z,64.97
2023-05-11T05:41:37.289Z,64.95
2023-05-11T05:42:37.327Z,64.56
2023-05-11T05:43:37.357Z,64.10
2023-05-11T05:44:37.830Z,63.99
2023-05-11T05:45:37.826Z,64.74
2023-05-11T05:46:37.640Z,64.47
2023-05-11T05:47:37.691Z,64.13
2023-05-11T05:48:38.826Z,64.79
2023-05-11T05:49:41.315Z,64.69
2023-05-11T05:50:41.077Z,64.52
2023-05-11T05:51:37.801Z,64.69
2023-05-11T05:52:40.867Z,64.69
2023-05-11T05:53:38.758Z,65.18
2023-05-11T05:55:45.333Z,64.62
2023-05-11T05:56:37.911Z,64.27
2023-05-11T05:57:45.290Z,64.51
2023-05-11T05:58:37.892Z,63.73
2023-05-11T05:59:45.292Z,64.16
2023-05-11T06:00:39.060Z,64.44
2023-05-11T06:01:45.201Z,64.10
2023-05-11T06:03:41.649Z,64.18
2023-05-11T06:05:41.101Z,63.91
2023-05-11T06:08:08.319Z,64.15
2023-05-11T06:08:37.950Z,64.32
2023-05-11T06:10:45.361Z,64.61
2023-05-11T06:11:45.405Z,64.31
2023-05-11T06:12:41.199Z,64.25
2023-05-11T06:13:38.018Z,64.31
2023-05-11T06:14:38.095Z,64.38
2023-05-11T06:15:39.118Z,64.00
2023-05-11T06:16:38.224Z,63.63
2023-05-11T06:17:38.158Z,63.75
2023-05-11T06:18:38.243Z,63.82
2023-05-11T06:19:38.224Z,63.16
2023-05-11T11:49:35.182Z,51.68
2023-05-11T11:50:36.149Z,51.25
2023-05-11T11:51:36.161Z,51.90
2023-05-11T11:52:36.508Z,52.17
2023-05-11T11:53:36.159Z,51.60
2023-05-11T11:54:36.154Z,52.30
2023-05-11T11:55:36.149Z,52.49
2023-05-11T11:56:36.171Z,52.58
2023-05-11T11:57:36.565Z,53.14
2023-05-11T11:58:36.156Z,53.35
2023-05-11T11:59:36.157Z,53.41
2023-05-11T12:00:36.161Z,53.60
2023-05-11T12:01:36.163Z,53.16
2023-05-11T12:02:36.568Z,52.11
2023-05-11T12:03:36.359Z,53.09
2023-05-11T12:04:36.198Z,52.48
2023-05-11T12:05:36.197Z,53.29
2023-05-11T12:06:36.193Z,53.27
2023-05-11T12:07:36.506Z,53.68
2023-05-11T12:08:36.187Z,53.17
2023-05-11T12:09:36.213Z,51.83
2023-05-11T12:10:36.183Z,51.51
2023-05-11T12:11:36.174Z,51.71
2023-05-11T12:12:36.540Z,52.15
2023-05-11T12:13:36.176Z,51.73
2023-05-11T12:14:36.175Z,50.67
2023-05-11T12:15:36.210Z,51.18
2023-05-11T12:16:36.269Z,51.76
2023-05-11T12:17:36.527Z,51.46
2023-05-11T12:18:36.380Z,51.52
2023-05-11T12:19:36.302Z,52.27
2023-05-11T12:20:36.308Z,52.88
2023-05-11T12:21:36.372Z,51.55
2023-05-11T12:22:36.359Z,52.65
2023-05-11T12:23:36.516Z,52.46
2023-05-11T12:24:36.432Z,52.92
2023-05-11T12:25:36.488Z,52.33
2023-05-11T12:26:36.577Z,52.39
2023-05-11T12:27:36.660Z,52.83
2023-05-11T12:28:36.692Z,53.35
2023-05-11T12:29:36.742Z,53.38
2023-05-11T12:30:36.772Z,53.46
2023-05-11T12:31:36.864Z,55.02
2023-05-11T12:32:36.908Z,55.23
2023-05-11T12:33:36.902Z,53.70
2023-05-11T12:34:36.972Z,53.49
2023-05-11T12:35:37.094Z,53.61
2023-05-11T12:36:37.123Z,53.59
2023-05-11T12:37:37.256Z,53.83
2023-05-11T12:38:37.513Z,53.99
2023-05-11T12:39:37.216Z,54.55
2023-05-11T12:40:37.281Z,55.20
2023-05-11T12:41:37.292Z,55.01
2023-05-11T12:42:37.380Z,54.87
2023-05-11T12:43:37.751Z,56.04
2023-05-11T12:44:37.537Z,57.05
2023-05-11T12:45:37.672Z,56.51
2023-05-11T12:46:37.761Z,56.84
2023-05-11T12:47:37.901Z,57.34
2023-05-11T12:48:37.888Z,56.73
2023-05-11T12:49:37.831Z,56.96
2023-05-11T12:50:37.803Z,56.95
2023-05-11T12:51:38.027Z,58.19
2023-05-11T12:52:37.883Z,58.15
2023-05-11T12:53:37.971Z,57.73
2023-05-11T12:54:38.038Z,56.94
2023-05-11T12:55:38.081Z,57.04
2023-05-11T12:56:38.148Z,56.65
2023-05-11T12:57:38.537Z,56.84
2023-05-11T12:58:38.276Z,56.67
2023-05-11T12:59:38.378Z,56.41
2023-05-11T13:00:39.442Z,57.07
2023-05-11T13:01:38.542Z,58.21
2023-05-11T13:02:39.077Z,58.26
2023-05-11T13:03:39.126Z,57.93
2023-05-11T13:04:38.682Z,56.59
2023-05-11T13:05:38.764Z,56.81
2023-05-11T13:06:38.839Z,56.76
2023-05-11T13:07:39.026Z,56.49
2023-05-11T13:08:38.971Z,57.09
2023-05-11T13:09:39.045Z,57.42
2023-05-11T13:10:39.079Z,57.49
2023-05-11T13:11:39.131Z,57.39
2023-05-11T13:12:39.208Z,57.37
2023-05-11T13:13:39.305Z,57.14
2023-05-11T13:14:39.823Z,58.12
2023-05-11T13:15:39.426Z,57.42
2023-05-11T13:16:39.443Z,57.46
2023-05-11T13:17:39.545Z,57.70
2023-05-11T13:18:39.543Z,58.54
2023-05-11T13:19:39.523Z,57.61
2023-05-11T13:20:39.553Z,57.94
2023-05-11T13:21:39.694Z,58.14
2023-05-11T13:22:39.699Z,58.22
2023-05-11T13:23:39.713Z,58.04
2023-05-11T13:24:39.749Z,58.53
2023-05-11T13:25:39.851Z,59.28
2023-05-11T13:26:39.888Z,59.47
2023-05-11T13:27:40.009Z,58.78
2023-05-11T13:28:40.020Z,58.87
2023-05-11T13:29:40.082Z,58.38
2023-05-11T13:30:40.560Z,57.94
2023-05-11T13:31:40.255Z,58.23
2023-05-11T13:32:40.301Z,57.61
2023-05-11T13:33:40.528Z,57.40
2023-05-11T13:34:40.352Z,57.43
2023-05-11T13:35:40.338Z,58.10
2023-05-11T13:36:40.410Z,58.71
2023-05-11T13:37:40.450Z,59.59
2023-05-11T13:38:40.531Z,59.29
2023-05-11T13:39:40.573Z,58.87
2023-05-11T13:40:40.623Z,59.10
2023-05-11T13:41:40.738Z,58.98
2023-05-11T13:42:40.755Z,58.93
2023-05-11T13:43:40.832Z,59.13
2023-05-11T13:44:40.902Z,59.43
2023-05-11T13:45:40.945Z,59.73
2023-05-11T13:46:41.071Z,59.81
2023-05-11T13:47:43.170Z,59.38
2023-05-11T13:48:41.089Z,59.01
2023-05-11T13:49:41.151Z,60.15
2023-05-11T13:50:41.114Z,59.75
2023-05-11T13:51:41.145Z,60.78
2023-05-11T13:52:41.156Z,61.67
2023-05-11T13:53:41.190Z,61.24
2023-05-11T13:54:41.219Z,60.95
2023-05-11T13:55:41.258Z,60.25
2023-05-11T13:56:41.333Z,59.97
2023-05-11T13:57:41.368Z,60.02
2023-05-11T13:58:41.315Z,60.81
2023-05-11T13:59:41.328Z,61.20
2023-05-11T14:00:41.374Z,60.13
2023-05-11T14:01:41.374Z,61.31
2023-05-11T14:02:41.453Z,61.35
2023-05-11T14:03:41.460Z,62.28
2023-05-11T14:04:41.405Z,61.76
2023-05-11T14:05:41.420Z,61.76
2023-05-11T14:06:41.423Z,61.34
2023-05-11T14:07:49.188Z,60.38
2023-05-11T14:08:41.520Z,59.84
2023-05-11T14:09:41.552Z,60.49
2023-05-11T14:10:42.054Z,60.37
2023-05-11T14:11:41.600Z,60.55
2023-05-11T14:12:41.615Z,60.93
2023-05-11T14:13:42.076Z,60.50
2023-05-11T14:14:41.667Z,60.46
2023-05-11T14:15:41.690Z,60.43
2023-05-11T14:16:41.697Z,60.99
2023-05-11T14:17:41.812Z,61.51
2023-05-11T14:18:42.166Z,61.34
2023-05-11T14:19:41.780Z,61.19
2023-05-11T14:20:41.964Z,61.05
2023-05-11T14:21:41.755Z,61.44
2023-05-11T14:22:41.812Z,61.80
2023-05-11T14:23:49.982Z,61.25
2023-05-11T14:24:42.057Z,60.99
2023-05-11T14:25:41.793Z,61.06
2023-05-11T14:26:41.800Z,60.42
2023-05-11T14:27:42.059Z,60.15
2023-05-11T14:28:41.871Z,61.63
2023-05-11T14:29:44.201Z,61.25
2023-05-11T14:30:41.968Z,61.44
2023-05-11T14:31:41.946Z,61.23
2023-05-11T14:32:41.998Z,61.65
2023-05-11T14:33:41.984Z,61.27
2023-05-11T14:34:42.003Z,61.71
2023-05-11T14:35:42.037Z,61.56
2023-05-11T14:36:42.042Z,62.08
2023-05-11T14:37:42.559Z,62.36
2023-05-11T14:38:42.095Z,61.92
2023-05-11T14:39:42.140Z,62.44
2023-05-11T14:40:42.114Z,62.61
2023-05-11T14:41:42.146Z,63.96
2023-05-11T14:42:42.171Z,63.09
2023-05-11T14:43:42.173Z,62.99
2023-05-11T14:44:42.177Z,62.54
2023-05-11T14:45:42.233Z,63.23
2023-05-11T14:46:42.374Z,64.20
2023-05-11T14:47:42.327Z,64.23
2023-05-11T14:48:42.288Z,64.31
2023-05-11T14:49:42.319Z,63.73
2023-05-11T14:50:42.350Z,63.24
2023-05-11T14:51:42.395Z,63.44
2023-05-11T14:52:42.427Z,63.89
2023-05-11T14:53:42.945Z,63.56
2023-05-11T14:54:43.056Z,63.54
2023-05-11T14:55:42.522Z,63.14
2023-05-11T14:56:42.548Z,63.13
2023-05-11T14:57:42.566Z,64.17
2023-05-11T14:58:42.599Z,63.59
2023-05-11T14:59:55.226Z,64.10
2023-05-11T15:00:42.649Z,64.96
2023-05-11T15:01:43.179Z,64.70
2023-05-11T15:02:42.756Z,64.61
2023-05-11T15:03:42.760Z,64.55
2023-05-11T15:04:42.762Z,64.05
2023-05-11T15:05:42.802Z,64.02
2023-05-11T15:06:42.833Z,65.72
2023-05-11T15:07:42.869Z,65.57
2023-05-11T15:08:42.909Z,65.31
2023-05-11T15:09:42.931Z,65.15
2023-05-11T15:10:42.960Z,64.17
2023-05-11T15:11:43.012Z,64.78
2023-05-11T15:12:43.077Z,64.55
2023-05-11T15:13:43.113Z,65.46
2023-05-11T15:14:43.151Z,65.16
2023-05-11T15:15:43.182Z,65.36
2023-05-11T15:18:12.625Z,65.49
2023-05-11T15:19:03.008Z,65.61
2023-05-11T15:20:02.962Z,65.20
2023-05-11T15:21:02.981Z,65.72
2023-05-11T15:22:02.953Z,66.42
2023-05-11T15:23:02.958Z,66.21
2023-05-11T15:24:02.962Z,64.86
2023-05-11T15:25:02.944Z,65.27
2023-05-11T15:26:02.937Z,65.98
2023-05-11T15:27:02.914Z,65.39
2023-05-11T15:28:02.915Z,65.25
2023-05-11T15:29:03.342Z,64.77
2023-05-11T15:30:02.925Z,65.88
2023-05-11T15:31:02.899Z,65.04
2023-05-11T15:32:03.046Z,66.26
2023-05-11T15:33:02.944Z,66.29
2023-05-11T15:34:03.036Z,65.43
2023-05-11T15:35:02.945Z,64.99
2023-05-11T15:36:02.956Z,63.95
2023-05-11T15:37:02.937Z,64.49
2023-05-11T15:38:02.961Z,65.85
2023-05-11T15:39:02.976Z,66.18
2023-05-11T15:40:02.991Z,65.84
2023-05-11T15:41:03.059Z,66.06
2023-05-11T15:42:03.132Z,66.41
2023-05-11T15:43:03.144Z,66.47
2023-05-11T15:44:03.192Z,65.89
2023-05-11T15:45:03.206Z,66.39
2023-05-11T15:46:03.265Z,66.15
2023-05-11T15:47:03.228Z,65.83
2023-05-11T15:48:03.271Z,65.46
2023-05-11T15:49:03.253Z,65.43
2023-05-11T15:50:03.277Z,64.82
2023-05-11T15:51:03.283Z,64.29
2023-05-11T15:52:03.321Z,64.20
2023-05-11T15:53:03.328Z,64.21
2023-05-11T15:54:03.842Z,64.51
2023-05-11T15:55:03.397Z,64.17
2023-05-11T15:56:03.454Z,64.83
2023-05-11T15:57:03.507Z,65.04
2023-05-11T15:58:03.528Z,65.72
2023-05-11T15:59:03.578Z,65.10
2023-05-11T16:00:03.646Z,65.34
2023-05-11T16:01:03.768Z,66.07
2023-05-11T16:02:03.721Z,66.21
2023-05-11T16:03:03.882Z,66.56
2023-05-11T16:04:03.844Z,66.70
2023-05-11T16:05:03.874Z,66.56
2023-05-11T16:06:03.975Z,66.58
2023-05-11T16:07:03.968Z,67.08
2023-05-11T16:08:04.031Z,67.16
2023-05-11T16:09:04.056Z,67.86
2023-05-11T16:10:04.128Z,67.99
2023-05-11T16:11:04.201Z,68.24
2023-05-11T16:12:04.216Z,68.01
2023-05-11T16:13:04.248Z,67.07
2023-05-11T16:14:04.258Z,67.82
2023-05-11T16:15:04.315Z,68.52
2023-05-11T16:16:04.384Z,68.62
2023-05-11T16:17:04.719Z,68.61
2023-05-11T16:18:05.347Z,68.70
2023-05-11T16:19:04.585Z,68.35
2023-05-11T16:20:04.553Z,67.58
2023-05-11T16:21:04.607Z,67.55
2023-05-11T16:22:04.749Z,67.25
2023-05-11T16:23:04.742Z,68.72
2023-05-11T16:24:04.759Z,68.03
2023-05-11T16:25:04.767Z,67.59
2023-05-11T16:26:04.793Z,67.88
2023-05-11T16:27:04.821Z,68.24
2023-05-11T16:28:04.860Z,68.18
2023-05-11T16:29:04.860Z,68.48
2023-05-11T16:30:17.991Z,68.28
2023-05-11T16:31:04.950Z,68.34
2023-05-11T16:32:04.852Z,68.18
2023-05-11T16:33:04.867Z,67.96
2023-05-11T16:34:04.855Z,68.06
2023-05-11T16:35:04.840Z,67.92
2023-05-11T16:36:04.820Z,68.35
2023-05-11T16:37:04.834Z,68.79
2023-05-11T16:38:04.844Z,68.21
2023-05-11T16:39:04.808Z,67.49
2023-05-11T16:40:04.810Z,69.03
2023-05-11T16:41:04.801Z,68.43
2023-05-11T16:42:04.781Z,68.26
2023-05-11T16:43:04.810Z,68.26
2023-05-11T16:44:04.753Z,68.29
2023-05-11T16:45:04.763Z,67.87
2023-05-11T16:46:04.771Z,67.87
2023-05-11T16:47:04.814Z,68.01
2023-05-11T16:48:04.740Z,67.72
2023-05-11T16:49:04.740Z,68.56
2023-05-11T16:50:04.702Z,68.15
2023-05-11T16:51:04.692Z,68.16
2023-05-11T16:52:04.694Z,68.16
2023-05-11T16:53:04.692Z,68.04
2023-05-11T16:54:04.845Z,68.85
2023-05-11T16:55:04.686Z,68.92
2023-05-11T16:56:04.679Z,68.86
2023-05-11T16:57:04.684Z,69.49
2023-05-11T16:58:04.685Z,69.45
2023-05-11T16:59:04.681Z,69.80
2023-05-11T17:00:04.688Z,69.61
2023-05-11T17:01:04.655Z,68.89
2023-05-11T17:02:04.746Z,68.23
2023-05-11T17:03:04.792Z,68.20
2023-05-11T17:04:04.733Z,68.16
2023-05-11T17:05:04.763Z,68.20
2023-05-11T17:06:04.811Z,68.53
2023-05-11T17:07:04.864Z,67.96
2023-05-11T17:08:04.895Z,68.11
2023-05-11T17:09:04.955Z,67.89
2023-05-11T17:10:05.006Z,67.58
2023-05-11T17:11:05.033Z,67.69
2023-05-11T17:12:05.088Z,67.52
2023-05-11T17:13:05.121Z,68.24
2023-05-11T17:14:05.173Z,68.87
2023-05-11T17:15:05.157Z,69.24
2023-05-11T17:16:05.187Z,68.56
2023-05-11T17:17:05.179Z,69.71
2023-05-11T17:18:05.305Z,69.31
2023-05-11T17:19:05.356Z,69.29
2023-05-11T17:20:05.363Z,69.05
2023-05-11T17:21:05.400Z,69.83
2023-05-11T17:22:05.431Z,69.64
2023-05-11T17:23:05.457Z,70.33
2023-05-11T17:24:05.509Z,70.01
2023-05-11T17:25:05.496Z,70.48
2023-05-11T17:26:05.542Z,70.65
2023-05-11T17:27:05.535Z,70.78
2023-05-11T17:28:05.565Z,70.61
2023-05-11T17:29:05.588Z,70.52
2023-05-11T17:30:05.634Z,70.35
2023-05-11T17:31:05.734Z,70.43
2023-05-11T17:32:05.998Z,70.45
2023-05-11T17:33:06.185Z,70.42
2023-05-11T17:34:05.913Z,70.66
2023-05-11T17:35:05.784Z,70.70
2023-05-11T17:36:05.820Z,70.07
2023-05-11T17:37:05.827Z,70.71
2023-05-11T17:38:05.863Z,70.47
2023-05-11T17:39:05.874Z,70.79
2023-05-11T17:40:05.888Z,70.38
2023-05-11T17:41:05.896Z,70.36
2023-05-11T17:42:05.986Z,70.24
2023-05-11T17:43:05.955Z,69.96
2023-05-11T17:44:06.025Z,70.10
2023-05-11T17:45:06.052Z,69.94
2023-05-11T17:46:06.192Z,69.74
2023-05-11T17:47:06.154Z,70.19
2023-05-11T17:48:06.217Z,70.00
2023-05-11T17:49:06.241Z,70.25
2023-05-11T17:50:06.282Z,69.85
2023-05-11T17:51:06.310Z,69.47
2023-05-11T17:52:06.355Z,69.65
2023-05-11T17:53:06.372Z,69.56
2023-05-11T17:54:06.424Z,70.08
2023-05-11T17:55:06.412Z,69.90
2023-05-11T17:56:06.419Z,70.37
2023-05-11T17:57:06.460Z,70.13
2023-05-11T17:58:06.523Z,70.16
2023-05-11T17:59:06.549Z,69.71
2023-05-11T18:00:06.601Z,70.14
2023-05-11T18:01:06.670Z,70.57
2023-05-11T18:02:06.651Z,70.71
2023-05-11T18:03:06.790Z,71.01
2023-05-11T18:04:06.792Z,71.41
2023-05-11T18:05:06.758Z,71.61
2023-05-11T18:06:06.769Z,71.03
2023-05-11T18:07:06.832Z,71.01
2023-05-11T18:08:08.398Z,70.40
2023-05-11T18:09:06.867Z,70.67
2023-05-11T18:10:06.874Z,70.76
2023-05-11T18:11:06.844Z,71.20
2023-05-11T18:12:06.838Z,71.15
2023-05-11T18:13:06.849Z,70.91
2023-05-11T18:14:06.884Z,71.09
2023-05-11T18:15:06.843Z,71.02
2023-05-11T18:16:06.913Z,71.56
2023-05-11T18:17:06.849Z,71.63
2023-05-11T18:18:06.946Z,71.53
2023-05-11T18:19:06.950Z,71.43
2023-05-11T18:20:06.849Z,71.50
2023-05-11T18:21:07.837Z,71.42
2023-05-11T18:22:06.858Z,71.31
2023-05-11T18:23:06.870Z,71.34
2023-05-11T18:24:06.880Z,71.43
2023-05-11T18:25:06.893Z,71.10
2023-05-11T18:26:06.887Z,70.53
2023-05-11T18:27:06.883Z,70.63
2023-05-11T18:28:06.885Z,70.21
2023-05-11T18:29:06.914Z,69.62